Wetterdaten: Woche 28.09.15 - 04.10.15 (KW40)
Datum Zeit Temp. A. Feuchte A. Luftdruck Regen Wind Richtung Sonnenschein ET UV Solar Taupunkt Windchill Windben Empfang
28.09.2015 00:00 8,6 C 77 % 1030,9 hPa 0,0 l/m 0,0 km/h (0 Bft) N 0,00 h 0,000 mm 0,0 UV-I 0 W/m 4,7 C 8,6 C 0,0 km/h (0 Bft) 0,00 %
28.09.2015 01:00 8,5 C 76 % 1031,1 hPa 0,0 l/m 0,0 km/h (0 Bft) N 0,00 h 0,000 mm 0,0 UV-I 0 W/m 4,5 C 8,5 C 0,0 km/h (0 Bft) 0,00 %
28.09.2015 02:00 8,4 C 79 % 1031,2 hPa 0,0 l/m 0,0 km/h (0 Bft) N 0,00 h 0,000 mm 0,0 UV-I 0 W/m 4,9 C 8,4 C 0,0 km/h (0 Bft) 0,00 %
28.09.2015 03:00 8,4 C 79 % 1031,2 hPa 0,0 l/m 0,0 km/h (0 Bft) N 0,00 h 0,000 mm 0,0 UV-I 0 W/m 4,9 C 8,4 C 0,0 km/h (0 Bft) 0,00 %
28.09.2015 04:00 8,1 C 82 % 1031,1 hPa 0,0 l/m 0,0 km/h (0 Bft) N 0,00 h 0,000 mm 0,0 UV-I 0 W/m 5,2 C 8,1 C 0,0 km/h (0 Bft) 0,00 %
28.09.2015 05:00 8,1 C 84 % 1031,3 hPa 0,0 l/m 0,0 km/h (0 Bft) N 0,00 h 0,000 mm 0,0 UV-I 0 W/m 5,5 C 8,1 C 0,0 km/h (0 Bft) 0,00 %
28.09.2015 06:00 8,0 C 85 % 1031,4 hPa 0,0 l/m 0,0 km/h (0 Bft) N 0,00 h 0,000 mm 0,0 UV-I 0 W/m 5,7 C 8,0 C 0,0 km/h (0 Bft) 0,00 %
28.09.2015 07:00 8,0 C 87 % 1031,7 hPa 0,0 l/m 0,0 km/h (0 Bft) N 0,00 h 0,000 mm 0,0 UV-I 12 W/m 6,1 C 8,0 C 0,0 km/h (0 Bft) 0,00 %
28.09.2015 08:00 8,5 C 85 % 1032,2 hPa 0,0 l/m 0,0 km/h (0 Bft) N 0,00 h 0,000 mm 0,0 UV-I 36 W/m 6,1 C 8,5 C 0,0 km/h (0 Bft) 0,00 %
28.09.2015 09:00 9,4 C 81 % 1032,6 hPa 0,0 l/m 0,0 km/h (0 Bft) N 0,00 h 0,000 mm 1,0 UV-I 83 W/m 6,3 C 9,4 C 0,0 km/h (0 Bft) 0,00 %
28.09.2015 10:00 10,0 C 79 % 1033,0 hPa 0,0 l/m 0,0 km/h (0 Bft) N 0,00 h 0,000 mm 1,0 UV-I 83 W/m 6,5 C 10,0 C 0,0 km/h (0 Bft) 0,00 %
28.09.2015 11:00 11,0 C 72 % 1032,8 hPa 0,0 l/m 0,4 km/h (0 Bft) O 0,25 h 0,000 mm 1,6 UV-I 273 W/m 6,1 C 11,0 C 1,3 km/h (1 Bft) 0,00 %
28.09.2015 12:00 14,2 C 55 % 1032,0 hPa 0,0 l/m 0,4 km/h (0 Bft) NO 0,67 h 0,000 mm 2,0 UV-I 508 W/m 5,3 C 14,2 C 2,3 km/h (1 Bft) 0,00 %
28.09.2015 13:00 15,5 C 50 % 1031,4 hPa 0,0 l/m 0,9 km/h (0 Bft) S 1,00 h 0,000 mm 2,1 UV-I 563 W/m 5,2 C 15,5 C 2,0 km/h (1 Bft) 0,00 %
28.09.2015 14:00 14,7 C 50 % 1031,0 hPa 0,0 l/m 1,1 km/h (0 Bft) O 0,50 h 0,000 mm 1,2 UV-I 419 W/m 4,4 C 14,7 C 1,6 km/h (1 Bft) 0,00 %
28.09.2015 15:00 14,6 C 52 % 1030,8 hPa 0,0 l/m 0,0 km/h (0 Bft) N 0,42 h 0,000 mm 1,0 UV-I 334 W/m 4,9 C 14,6 C 0,3 km/h (0 Bft) 0,00 %
28.09.2015 16:00 15,8 C 46 % 1030,3 hPa 0,0 l/m 0,5 km/h (0 Bft) O-SO 0,75 h 0,000 mm 1,0 UV-I 434 W/m 4,3 C 15,8 C 0,7 km/h (0 Bft) 0,00 %
28.09.2015 17:00 16,3 C 46 % 1030,3 hPa 0,0 l/m 0,2 km/h (0 Bft) N 0,67 h 0,000 mm 1,0 UV-I 267 W/m 4,4 C 16,3 C 0,3 km/h (0 Bft) 0,00 %
28.09.2015 18:00 13,2 C 61 % 1031,2 hPa 0,0 l/m 0,0 km/h (0 Bft) N 0,00 h 0,000 mm 0,0 UV-I 22 W/m 5,7 C 13,2 C 0,0 km/h (0 Bft) 0,00 %
28.09.2015 19:00 10,9 C 67 % 1031,7 hPa 0,0 l/m 0,0 km/h (0 Bft) N 0,00 h 0,000 mm 0,0 UV-I 0 W/m 5,1 C 10,9 C 0,0 km/h (0 Bft) 0,00 %
28.09.2015 20:00 10,3 C 63 % 1032,1 hPa 0,0 l/m 0,0 km/h (0 Bft) N 0,00 h 0,000 mm 0,0 UV-I 0 W/m 3,5 C 10,3 C 0,0 km/h (0 Bft) 0,00 %
28.09.2015 21:00 9,5 C 63 % 1032,4 hPa 0,0 l/m 0,0 km/h (0 Bft) N 0,00 h 0,000 mm 0,0 UV-I 0 W/m 2,7 C 9,5 C 0,0 km/h (0 Bft) 0,00 %
28.09.2015 22:00 8,8 C 65 % 1032,7 hPa 0,0 l/m 0,4 km/h (0 Bft) NO 0,00 h 0,000 mm 0,0 UV-I 0 W/m 2,7 C 8,8 C 1,0 km/h (0 Bft) 0,00 %
28.09.2015 23:00 8,0 C 72 % 1032,7 hPa 0,0 l/m 0,3 km/h (0 Bft) O 0,00 h 0,000 mm 0,0 UV-I 0 W/m 3,2 C 8,0 C 0,3 km/h (0 Bft) 0,00 %
29.09.2015 00:00 5,8 C 82 % 1032,4 hPa 0,0 l/m 0,0 km/h (0 Bft) N 0,00 h 0,000 mm 0,0 UV-I 0 W/m 3,0 C 5,8 C 0,0 km/h (0 Bft) 0,00 %
29.09.2015 01:00 4,5 C 88 % 1032,2 hPa 0,0 l/m 0,0 km/h (0 Bft) N 0,00 h 0,000 mm 0,0 UV-I 0 W/m 2,6 C 4,5 C 0,0 km/h (0 Bft) 0,00 %
29.09.2015 02:00 4,5 C 86 % 1032,2 hPa 0,0 l/m 0,0 km/h (0 Bft) N 0,00 h 0,000 mm 0,0 UV-I 0 W/m 2,4 C 4,5 C 0,0 km/h (0 Bft) 0,00 %
29.09.2015 03:00 5,4 C 83 % 1032,1 hPa 0,0 l/m 0,0 km/h (0 Bft) N 0,00 h 0,000 mm 0,0 UV-I 0 W/m 2,8 C 5,4 C 0,0 km/h (0 Bft) 0,00 %
29.09.2015 04:00 6,8 C 77 % 1032,0 hPa 0,0 l/m 0,0 km/h (0 Bft) N 0,00 h 0,000 mm 0,0 UV-I 0 W/m 3,0 C 6,8 C 0,0 km/h (0 Bft) 0,00 %
29.09.2015 05:00 6,7 C 80 % 1032,0 hPa 0,0 l/m 0,0 km/h (0 Bft) N 0,00 h 0,000 mm 0,0 UV-I 0 W/m 3,4 C 6,7 C 0,0 km/h (0 Bft) 0,00 %
29.09.2015 06:00 6,8 C 81 % 1032,2 hPa 0,0 l/m 0,0 km/h (0 Bft) N 0,00 h 0,000 mm 0,0 UV-I 0 W/m 3,8 C 6,8 C 0,0 km/h (0 Bft) 0,00 %
29.09.2015 07:00 7,5 C 76 % 1032,5 hPa 0,0 l/m 0,3 km/h (0 Bft) O-NO 0,00 h 0,000 mm 0,0 UV-I 26 W/m 3,5 C 7,5 C 1,7 km/h (1 Bft) 0,00 %
29.09.2015 08:00 8,9 C 71 % 1032,3 hPa 0,0 l/m 0,9 km/h (0 Bft) O 0,17 h 0,000 mm 1,0 UV-I 107 W/m 3,9 C 8,9 C 2,0 km/h (1 Bft) 0,00 %
29.09.2015 09:00 10,3 C 66 % 1032,4 hPa 0,0 l/m 3,7 km/h (1 Bft) O-NO 0,08 h 0,000 mm 1,0 UV-I 181 W/m 4,3 C 10,2 C 6,3 km/h (2 Bft) 0,00 %
29.09.2015 10:00 12,1 C 58 % 1032,3 hPa 0,0 l/m 2,4 km/h (1 Bft) O 0,00 h 0,000 mm 1,4 UV-I 237 W/m 4,1 C 12,0 C 4,3 km/h (1 Bft) 0,00 %
29.09.2015 11:00 13,2 C 55 % 1032,1 hPa 0,0 l/m 5,0 km/h (1 Bft) O-NO 0,75 h 0,000 mm 1,8 UV-I 382 W/m 4,5 C 12,7 C 7,6 km/h (2 Bft) 0,00 %
29.09.2015 12:00 13,5 C 56 % 1031,7 hPa 0,0 l/m 6,8 km/h (2 Bft) O-SO 0,33 h 0,000 mm 1,5 UV-I 356 W/m 4,7 C 12,4 C 10,6 km/h (2 Bft) 0,00 %
29.09.2015 13:00 13,2 C 57 % 1031,6 hPa 0,0 l/m 5,5 km/h (1 Bft) O-SO 0,42 h 0,000 mm 1,6 UV-I 342 W/m 4,8 C 12,5 C 8,9 km/h (2 Bft) 0,00 %
29.09.2015 14:00 14,4 C 52 % 1031,1 hPa 0,0 l/m 4,7 km/h (1 Bft) O-SO 0,92 h 0,000 mm 1,6 UV-I 545 W/m 4,6 C 13,9 C 7,6 km/h (2 Bft) 0,00 %
29.09.2015 15:00 14,1 C 54 % 1030,9 hPa 0,0 l/m 2,8 km/h (1 Bft) O 0,67 h 0,000 mm 1,1 UV-I 343 W/m 4,8 C 13,9 C 5,1 km/h (1 Bft) 0,00 %
29.09.2015 16:00 13,4 C 57 % 1031,1 hPa 0,0 l/m 3,4 km/h (1 Bft) O-NO 0,17 h 0,000 mm 1,0 UV-I 145 W/m 5,0 C 13,4 C 6,0 km/h (2 Bft) 0,00 %
29.09.2015 17:00 12,6 C 62 % 1031,3 hPa 0,0 l/m 1,2 km/h (1 Bft) O 0,00 h 0,000 mm 0,0 UV-I 52 W/m 5,4 C 12,6 C 3,0 km/h (1 Bft) 0,00 %
29.09.2015 18:00 11,8 C 67 % 1031,5 hPa 0,0 l/m 0,0 km/h (0 Bft) N 0,00 h 0,000 mm 0,0 UV-I 7 W/m 5,7 C 11,8 C 0,0 km/h (0 Bft) 0,00 %
29.09.2015 19:00 10,9 C 71 % 1031,7 hPa 0,0 l/m 0,0 km/h (0 Bft) N 0,00 h 0,000 mm 0,0 UV-I 0 W/m 5,7 C 10,9 C 0,0 km/h (0 Bft) 0,00 %
29.09.2015 20:00 10,5 C 72 % 1031,6 hPa 0,0 l/m 0,0 km/h (0 Bft) N 0,00 h 0,000 mm 0,0 UV-I 0 W/m 5,7 C 10,5 C 0,0 km/h (0 Bft) 0,00 %
29.09.2015 21:00 10,2 C 74 % 1031,6 hPa 0,0 l/m 0,2 km/h (0 Bft) O 0,00 h 0,000 mm 0,0 UV-I 0 W/m 5,8 C 10,2 C 0,7 km/h (0 Bft) 0,00 %
29.09.2015 22:00 10,3 C 71 % 1031,7 hPa 0,0 l/m 1,0 km/h (0 Bft) O-NO 0,00 h 0,000 mm 0,0 UV-I 0 W/m 5,3 C 10,3 C 3,3 km/h (1 Bft) 0,00 %
29.09.2015 23:00 9,3 C 73 % 1031,9 hPa 0,0 l/m 2,7 km/h (1 Bft) O 0,00 h 0,000 mm 0,0 UV-I 0 W/m 4,8 C 9,3 C 5,6 km/h (1 Bft) 0,00 %
30.09.2015 00:00 7,6 C 83 % 1031,8 hPa 0,0 l/m 0,7 km/h (0 Bft) O 0,00 h 0,000 mm 0,0 UV-I 0 W/m 4,8 C 7,6 C 2,0 km/h (1 Bft) 0,00 %
30.09.2015 01:00 6,6 C 85 % 1031,8 hPa 0,0 l/m 0,3 km/h (0 Bft) O 0,00 h 0,000 mm 0,0 UV-I 0 W/m 4,2 C 6,6 C 0,7 km/h (0 Bft) 0,00 %
30.09.2015 02:00 5,5 C 89 % 1031,8 hPa 0,0 l/m 0,0 km/h (0 Bft) N 0,00 h 0,000 mm 0,0 UV-I 0 W/m 3,8 C 5,5 C 0,0 km/h (0 Bft) 0,00 %
30.09.2015 03:00 4,6 C 93 % 1031,5 hPa 0,0 l/m 0,0 km/h (0 Bft) N 0,00 h 0,000 mm 0,0 UV-I 0 W/m 3,5 C 4,6 C 0,0 km/h (0 Bft) 0,00 %
30.09.2015 04:00 4,3 C 92 % 1031,1 hPa 0,0 l/m 0,0 km/h (0 Bft) N 0,00 h 0,000 mm 0,0 UV-I 0 W/m 3,1 C 4,3 C 0,3 km/h (0 Bft) 0,00 %
30.09.2015 05:00 4,4 C 90 % 1031,0 hPa 0,0 l/m 0,4 km/h (0 Bft) O-NO 0,00 h 0,000 mm 0,0 UV-I 0 W/m 2,9 C 4,4 C 1,0 km/h (0 Bft) 0,00 %
30.09.2015 06:00 4,3 C 89 % 1031,0 hPa 0,0 l/m 0,1 km/h (0 Bft) N 0,00 h 0,000 mm 0,0 UV-I 0 W/m 2,7 C 4,3 C 0,7 km/h (0 Bft) 0,00 %
30.09.2015 07:00 4,3 C 90 % 1030,9 hPa 0,0 l/m 0,3 km/h (0 Bft) O-NO 0,75 h 0,000 mm 0,0 UV-I 76 W/m 2,7 C 4,3 C 1,7 km/h (1 Bft) 0,00 %
30.09.2015 08:00 6,1 C 82 % 1031,2 hPa 0,0 l/m 2,0 km/h (1 Bft) O-NO 0,68 h 0,000 mm 1,0 UV-I 139 W/m 3,2 C 6,1 C 3,6 km/h (1 Bft) 0,00 %
30.09.2015 09:00 8,1 C 74 % 1031,6 hPa 0,0 l/m 6,4 km/h (2 Bft) O 0,00 h 0,000 mm 1,0 UV-I 170 W/m 3,7 C 7,1 C 9,6 km/h (2 Bft) 0,00 %
30.09.2015 10:00 9,7 C 64 % 1031,5 hPa 0,0 l/m 9,1 km/h (2 Bft) O-NO 0,17 h 0,000 mm 1,2 UV-I 255 W/m 3,2 C 7,5 C 14,9 km/h (3 Bft) 0,00 %
30.09.2015 11:00 10,6 C 60 % 1031,3 hPa 0,0 l/m 13,2 km/h (3 Bft) O 1,00 h 0,000 mm 2,0 UV-I 372 W/m 3,1 C 6,9 C 18,5 km/h (3 Bft) 0,00 %
30.09.2015 12:00 11,7 C 54 % 1030,6 hPa 0,0 l/m 9,5 km/h (2 Bft) O 1,00 h 0,000 mm 2,0 UV-I 546 W/m 2,8 C 9,7 C 14,2 km/h (3 Bft) 0,00 %
30.09.2015 13:00 12,6 C 52 % 1029,9 hPa 0,0 l/m 11,1 km/h (2 Bft) O 0,83 h 0,000 mm 1,7 UV-I 579 W/m 3,1 C 10,0 C 15,6 km/h (3 Bft) 0,00 %
30.09.2015 14:00 12,7 C 50 % 1029,4 hPa 0,0 l/m 10,6 km/h (2 Bft) O 0,83 h 0,000 mm 1,0 UV-I 603 W/m 2,5 C 10,4 C 14,5 km/h (3 Bft) 0,00 %
30.09.2015 15:00 13,0 C 46 % 1028,6 hPa 0,0 l/m 9,1 km/h (2 Bft) O-NO 1,00 h 0,000 mm 1,0 UV-I 707 W/m 1,6 C 11,3 C 14,2 km/h (3 Bft) 0,00 %
30.09.2015 16:00 11,9 C 47 % 1029,1 hPa 0,0 l/m 10,7 km/h (2 Bft) O 0,42 h 0,000 mm 1,0 UV-I 259 W/m 0,9 C 9,4 C 17,2 km/h (3 Bft) 0,00 %
30.09.2015 17:00 10,9 C 50 % 1029,3 hPa 0,0 l/m 7,6 km/h (2 Bft) O 0,75 h 0,000 mm 1,0 UV-I 194 W/m 0,9 C 9,5 C 11,5 km/h (2 Bft) 0,00 %
30.09.2015 18:00 10,1 C 50 % 1029,6 hPa 0,0 l/m 6,7 km/h (2 Bft) O 0,58 h 0,000 mm 0,0 UV-I 61 W/m 0,2 C 9,1 C 9,9 km/h (2 Bft) 0,00 %
30.09.2015 19:00 8,5 C 59 % 1030,2 hPa 0,0 l/m 4,6 km/h (1 Bft) O 0,00 h 0,000 mm 0,0 UV-I 0 W/m 0,8 C 8,3 C 8,3 km/h (2 Bft) 0,00 %
30.09.2015 20:00 7,6 C 62 % 1030,6 hPa 0,0 l/m 5,6 km/h (1 Bft) O-NO 0,00 h 0,000 mm 0,0 UV-I 0 W/m 0,7 C 7,2 C 8,9 km/h (2 Bft) 0,00 %
30.09.2015 21:00 6,4 C 67 % 1030,6 hPa 0,0 l/m 3,0 km/h (1 Bft) O 0,00 h 0,000 mm 0,0 UV-I 0 W/m 0,7 C 6,2 C 5,3 km/h (1 Bft) 0,00 %
30.09.2015 22:00 5,7 C 69 % 1030,5 hPa 0,0 l/m 0,8 km/h (0 Bft) O 0,00 h 0,000 mm 0,0 UV-I 0 W/m 0,5 C 5,7 C 2,0 km/h (1 Bft) 0,00 %
30.09.2015 23:00 4,9 C 74 % 1030,2 hPa 0,0 l/m 1,5 km/h (1 Bft) O 0,00 h 0,000 mm 0,0 UV-I 0 W/m 0,6 C 4,9 C 3,0 km/h (1 Bft) 0,00 %
01.10.2015 00:00 5,0 C 75 % 1029,8 hPa 0,0 l/m 1,7 km/h (1 Bft) O-NO 0,00 h 0,000 mm 0,0 UV-I 0 W/m 0,8 C 5,0 C 3,6 km/h (1 Bft) 0,00 %
01.10.2015 01:00 4,4 C 79 % 1029,3 hPa 0,0 l/m 0,8 km/h (0 Bft) O-NO 0,00 h 0,000 mm 0,0 UV-I 0 W/m 1,0 C 4,4 C 1,7 km/h (1 Bft) 0,00 %
01.10.2015 02:00 3,5 C 84 % 1028,8 hPa 0,0 l/m 1,0 km/h (0 Bft) O 0,00 h 0,000 mm 0,0 UV-I 0 W/m 1,1 C 3,5 C 3,0 km/h (1 Bft) 0,00 %
01.10.2015 03:00 4,0 C 84 % 1028,5 hPa 0,0 l/m 2,3 km/h (1 Bft) O-SO 0,00 h 0,000 mm 0,0 UV-I 0 W/m 1,6 C 4,0 C 4,6 km/h (1 Bft) 0,00 %
01.10.2015 04:00 4,1 C 83 % 1028,3 hPa 0,0 l/m 2,3 km/h (1 Bft) O-SO 0,00 h 0,000 mm 0,0 UV-I 0 W/m 1,5 C 4,1 C 4,3 km/h (1 Bft) 0,00 %
01.10.2015 05:00 4,2 C 83 % 1028,0 hPa 0,0 l/m 5,6 km/h (1 Bft) O 0,00 h 0,000 mm 0,0 UV-I 0 W/m 1,5 C 3,2 C 8,9 km/h (2 Bft) 0,00 %
01.10.2015 06:00 4,7 C 81 % 1027,7 hPa 0,0 l/m 6,6 km/h (2 Bft) O 0,00 h 0,000 mm 0,0 UV-I 0 W/m 1,6 C 3,2 C 11,9 km/h (2 Bft) 0,00 %
01.10.2015 07:00 5,2 C 77 % 1027,7 hPa 0,0 l/m 9,4 km/h (2 Bft) O 0,75 h 0,000 mm 0,0 UV-I 79 W/m 1,5 C 2,7 C 14,6 km/h (3 Bft) 0,00 %
01.10.2015 08:00 6,8 C 68 % 1027,5 hPa 0,0 l/m 9,2 km/h (2 Bft) O-NO 0,75 h 0,000 mm 1,0 UV-I 142 W/m 1,4 C 4,4 C 13,8 km/h (3 Bft) 0,00 %
01.10.2015 09:00 8,9 C 58 % 1027,5 hPa 0,0 l/m 8,9 km/h (2 Bft) O 0,00 h 0,000 mm 1,0 UV-I 166 W/m 1,0 C 7,0 C 15,2 km/h (3 Bft) 0,00 %
01.10.2015 10:00 11,0 C 51 % 1027,3 hPa 0,0 l/m 9,5 km/h (2 Bft) O-NO 0,00 h 0,000 mm 1,3 UV-I 239 W/m 1,1 C 8,9 C 15,5 km/h (3 Bft) 0,00 %
01.10.2015 11:00 12,4 C 48 % 1027,0 hPa 0,0 l/m 8,3 km/h (2 Bft) O 0,67 h 0,000 mm 2,0 UV-I 356 W/m 1,5 C 10,6 C 12,9 km/h (3 Bft) 0,00 %
01.10.2015 12:00 13,8 C 44 % 1026,5 hPa 0,0 l/m 9,3 km/h (2 Bft) O 1,00 h 0,000 mm 2,0 UV-I 557 W/m 1,7 C 11,7 C 14,6 km/h (3 Bft) 0,00 %
01.10.2015 13:00 14,3 C 43 % 1026,2 hPa 0,0 l/m 12,9 km/h (3 Bft) O 1,00 h 0,000 mm 1,6 UV-I 613 W/m 2,0 C 11,2 C 17,9 km/h (3 Bft) 0,00 %
01.10.2015 14:00 15,0 C 43 % 1025,9 hPa 0,0 l/m 12,4 km/h (3 Bft) O 1,00 h 0,000 mm 1,0 UV-I 709 W/m 2,4 C 12,2 C 17,9 km/h (3 Bft) 0,00 %
01.10.2015 15:00 15,0 C 44 % 1025,6 hPa 0,0 l/m 15,1 km/h (3 Bft) O-NO 1,00 h 0,000 mm 1,0 UV-I 682 W/m 2,7 C 11,4 C 21,4 km/h (4 Bft) 0,00 %
01.10.2015 16:00 14,9 C 44 % 1025,3 hPa 0,0 l/m 14,8 km/h (3 Bft) O 1,00 h 0,000 mm 1,0 UV-I 595 W/m 2,9 C 11,4 C 22,2 km/h (4 Bft) 0,00 %
01.10.2015 17:00 14,2 C 48 % 1025,3 hPa 0,0 l/m 11,9 km/h (2 Bft) O-NO 1,00 h 0,000 mm 1,0 UV-I 396 W/m 3,4 C 11,8 C 16,6 km/h (3 Bft) 0,00 %
01.10.2015 18:00 12,9 C 53 % 1025,9 hPa 0,0 l/m 8,7 km/h (2 Bft) O 0,60 h 0,000 mm 0,0 UV-I 81 W/m 3,5 C 11,4 C 13,5 km/h (3 Bft) 0,00 %
01.10.2015 19:00 11,4 C 58 % 1026,4 hPa 0,0 l/m 6,5 km/h (2 Bft) O 0,00 h 0,000 mm 0,0 UV-I 0 W/m 3,4 C 10,4 C 9,6 km/h (2 Bft) 0,00 %
01.10.2015 20:00 10,7 C 61 % 1026,1 hPa 0,0 l/m 7,9 km/h (2 Bft) O 0,00 h 0,000 mm 0,0 UV-I 0 W/m 3,4 C 9,3 C 12,2 km/h (2 Bft) 0,00 %
01.10.2015 21:00 9,5 C 67 % 1026,0 hPa 0,0 l/m 4,3 km/h (1 Bft) O 0,00 h 0,000 mm 0,0 UV-I 0 W/m 3,7 C 9,0 C 8,3 km/h (2 Bft) 0,00 %
01.10.2015 22:00 8,5 C 72 % 1026,1 hPa 0,0 l/m 2,0 km/h (1 Bft) O 0,00 h 0,000 mm 0,0 UV-I 0 W/m 3,7 C 8,5 C 4,3 km/h (1 Bft) 0,00 %
01.10.2015 23:00 7,7 C 75 % 1026,3 hPa 0,0 l/m 1,8 km/h (1 Bft) O 0,00 h 0,000 mm 0,0 UV-I 0 W/m 3,6 C 7,7 C 4,0 km/h (1 Bft) 0,00 %
02.10.2015 00:00 7,2 C 77 % 1026,1 hPa 0,0 l/m 1,5 km/h (1 Bft) O-SO 0,00 h 0,000 mm 0,0 UV-I 0 W/m 3,4 C 7,2 C 3,3 km/h (1 Bft) 0,00 %
02.10.2015 01:00 7,0 C 78 % 1025,8 hPa 0,0 l/m 3,1 km/h (1 Bft) O 0,00 h 0,000 mm 0,0 UV-I 0 W/m 3,4 C 6,8 C 4,3 km/h (1 Bft) 0,00 %
02.10.2015 02:00 6,7 C 79 % 1025,4 hPa 0,0 l/m 2,1 km/h (1 Bft) O 0,00 h 0,000 mm 0,0 UV-I 0 W/m 3,3 C 6,6 C 4,6 km/h (1 Bft) 0,00 %
02.10.2015 03:00 5,7 C 82 % 1025,1 hPa 0,0 l/m 0,2 km/h (0 Bft) O 0,00 h 0,000 mm 0,0 UV-I 0 W/m 2,9 C 5,7 C 1,0 km/h (0 Bft) 0,00 %
02.10.2015 04:00 5,1 C 84 % 1025,0 hPa 0,0 l/m 0,1 km/h (0 Bft) N 0,00 h 0,000 mm 0,0 UV-I 0 W/m 2,6 C 5,1 C 1,0 km/h (0 Bft) 0,00 %
02.10.2015 05:00 4,8 C 85 % 1024,7 hPa 0,0 l/m 0,2 km/h (0 Bft) O 0,00 h 0,000 mm 0,0 UV-I 0 W/m 2,6 C 4,8 C 0,7 km/h (0 Bft) 0,00 %
02.10.2015 06:00 4,6 C 86 % 1024,7 hPa 0,0 l/m 0,7 km/h (0 Bft) O 0,00 h 0,000 mm 0,0 UV-I 0 W/m 2,5 C 4,6 C 1,3 km/h (1 Bft) 0,00 %
02.10.2015 07:00 4,6 C 87 % 1024,5 hPa 0,0 l/m 0,6 km/h (0 Bft) O-NO 0,75 h 0,000 mm 0,0 UV-I 70 W/m 2,6 C 4,6 C 1,3 km/h (1 Bft) 0,00 %
02.10.2015 08:00 7,3 C 77 % 1024,3 hPa 0,0 l/m 2,9 km/h (1 Bft) O-NO 0,83 h 0,000 mm 1,0 UV-I 151 W/m 3,5 C 7,3 C 5,3 km/h (1 Bft) 0,00 %
02.10.2015 09:00 8,8 C 71 % 1024,1 hPa 0,0 l/m 8,0 km/h (2 Bft) O 0,00 h 0,000 mm 1,0 UV-I 124 W/m 3,9 C 7,5 C 12,3 km/h (3 Bft) 0,00 %
02.10.2015 10:00 10,2 C 65 % 1023,8 hPa 0,0 l/m 5,8 km/h (1 Bft) O-NO 0,00 h 0,000 mm 1,2 UV-I 212 W/m 3,9 C 9,3 C 9,9 km/h (2 Bft) 0,00 %
02.10.2015 11:00 11,9 C 60 % 1023,3 hPa 0,0 l/m 3,7 km/h (1 Bft) O 0,08 h 0,000 mm 1,3 UV-I 232 W/m 4,5 C 11,9 C 6,6 km/h (2 Bft) 0,00 %
02.10.2015 12:00 13,3 C 58 % 1022,4 hPa 0,0 l/m 5,0 km/h (1 Bft) O 0,67 h 0,000 mm 1,5 UV-I 469 W/m 5,1 C 12,8 C 7,9 km/h (2 Bft) 0,00 %
02.10.2015 13:00 16,1 C 50 % 1021,4 hPa 0,0 l/m 8,6 km/h (2 Bft) O 0,92 h 0,000 mm 1,5 UV-I 675 W/m 5,6 C 14,8 C 11,9 km/h (2 Bft) 0,00 %
02.10.2015 14:00 17,9 C 46 % 1020,3 hPa 0,0 l/m 13,6 km/h (3 Bft) O 1,00 h 0,000 mm 1,0 UV-I 727 W/m 6,2 C 15,1 C 18,6 km/h (3 Bft) 0,00 %
02.10.2015 15:00 18,7 C 45 % 1019,7 hPa 0,0 l/m 12,7 km/h (3 Bft) O-SO 1,00 h 0,000 mm 1,0 UV-I 705 W/m 6,5 C 16,4 C 17,9 km/h (3 Bft) 0,00 %
02.10.2015 16:00 19,0 C 45 % 1019,0 hPa 0,0 l/m 8,9 km/h (2 Bft) NO 1,00 h 0,000 mm 1,0 UV-I 598 W/m 6,7 C 17,5 C 13,5 km/h (3 Bft) 0,00 %
02.10.2015 17:00 18,4 C 48 % 1018,4 hPa 0,0 l/m 8,7 km/h (2 Bft) NO 1,00 h 0,000 mm 1,0 UV-I 372 W/m 7,1 C 17,1 C 13,2 km/h (3 Bft) 0,00 %
02.10.2015 18:00 16,7 C 52 % 1018,7 hPa 0,0 l/m 7,8 km/h (2 Bft) O-NO 0,50 h 0,000 mm 0,0 UV-I 71 W/m 6,7 C 15,7 C 12,2 km/h (2 Bft) 0,00 %
02.10.2015 19:00 15,0 C 57 % 1018,9 hPa 0,0 l/m 8,4 km/h (2 Bft) O 0,00 h 0,000 mm 0,0 UV-I 0 W/m 6,4 C 13,9 C 13,0 km/h (3 Bft) 0,00 %
02.10.2015 20:00 14,1 C 60 % 1019,0 hPa 0,0 l/m 6,8 km/h (2 Bft) O 0,00 h 0,000 mm 0,0 UV-I 0 W/m 6,4 C 13,3 C 10,2 km/h (2 Bft) 0,00 %
02.10.2015 21:00 13,0 C 63 % 1018,9 hPa 0,0 l/m 6,2 km/h (2 Bft) O 0,00 h 0,000 mm 0,0 UV-I 0 W/m 6,2 C 12,3 C 9,6 km/h (2 Bft) 0,00 %
02.10.2015 22:00 11,9 C 68 % 1018,6 hPa 0,0 l/m 4,1 km/h (1 Bft) O 0,00 h 0,000 mm 0,0 UV-I 0 W/m 6,1 C 11,8 C 6,3 km/h (2 Bft) 0,00 %
02.10.2015 23:00 10,7 C 73 % 1018,4 hPa 0,0 l/m 1,4 km/h (1 Bft) O 0,00 h 0,000 mm 0,0 UV-I 0 W/m 6,0 C 10,6 C 2,3 km/h (1 Bft) 0,00 %
03.10.2015 00:00 10,2 C 75 % 1018,1 hPa 0,0 l/m 0,1 km/h (0 Bft) N 0,00 h 0,000 mm 0,0 UV-I 0 W/m 6,0 C 10,2 C 0,7 km/h (0 Bft) 0,00 %
03.10.2015 01:00 9,5 C 79 % 1017,8 hPa 0,0 l/m 0,0 km/h (0 Bft) NO 0,00 h 0,000 mm 0,0 UV-I 0 W/m 6,0 C 9,5 C 0,0 km/h (0 Bft) 0,00 %
03.10.2015 02:00 8,6 C 82 % 1017,6 hPa 0,0 l/m 0,2 km/h (0 Bft) N 0,00 h 0,000 mm 0,0 UV-I 0 W/m 5,7 C 8,6 C 0,7 km/h (0 Bft) 0,00 %
03.10.2015 03:00 6,8 C 89 % 1017,1 hPa 0,0 l/m 0,0 km/h (0 Bft) N 0,00 h 0,000 mm 0,0 UV-I 0 W/m 5,0 C 6,8 C 0,0 km/h (0 Bft) 0,00 %
03.10.2015 04:00 6,0 C 92 % 1016,9 hPa 0,0 l/m 0,0 km/h (0 Bft) N 0,00 h 0,000 mm 0,0 UV-I 0 W/m 4,8 C 6,0 C 0,0 km/h (0 Bft) 0,00 %
03.10.2015 05:00 5,6 C 94 % 1016,5 hPa 0,0 l/m 0,0 km/h (0 Bft) N 0,00 h 0,000 mm 0,0 UV-I 0 W/m 4,7 C 5,6 C 0,0 km/h (0 Bft) 0,00 %
03.10.2015 06:00 5,1 C 95 % 1016,4 hPa 0,0 l/m 0,0 km/h (0 Bft) N 0,00 h 0,000 mm 0,0 UV-I 0 W/m 4,3 C 5,1 C 0,0 km/h (0 Bft) 0,00 %
03.10.2015 07:00 5,3 C 96 % 1016,4 hPa 0,0 l/m 0,0 km/h (0 Bft) N 0,25 h 0,000 mm 0,0 UV-I 39 W/m 4,7 C 5,3 C 0,0 km/h (0 Bft) 0,00 %
03.10.2015 08:00 8,0 C 88 % 1016,6 hPa 0,0 l/m 0,0 km/h (0 Bft) N 0,00 h 0,000 mm 1,0 UV-I 87 W/m 6,1 C 8,0 C 0,0 km/h (0 Bft) 0,00 %
03.10.2015 09:00 11,1 C 75 % 1016,6 hPa 0,0 l/m 0,6 km/h (0 Bft) O-NO 0,00 h 0,000 mm 1,0 UV-I 173 W/m 6,7 C 11,1 C 1,7 km/h (1 Bft) 0,00 %
03.10.2015 10:00 13,5 C 65 % 1016,4 hPa 0,0 l/m 2,8 km/h (1 Bft) O-SO 0,50 h 0,000 mm 1,4 UV-I 283 W/m 6,9 C 13,4 C 4,3 km/h (1 Bft) 0,00 %
03.10.2015 11:00 16,0 C 58 % 1016,1 hPa 0,0 l/m 1,2 km/h (1 Bft) O-SO 0,75 h 0,000 mm 1,8 UV-I 369 W/m 7,6 C 16,0 C 3,3 km/h (1 Bft) 0,00 %
03.10.2015 12:00 16,3 C 58 % 1015,8 hPa 0,0 l/m 0,5 km/h (0 Bft) O 0,17 h 0,000 mm 1,5 UV-I 335 W/m 8,1 C 16,3 C 1,8 km/h (1 Bft) 0,00 %
03.10.2015 13:00 18,5 C 52 % 1015,1 hPa 0,0 l/m 0,2 km/h (0 Bft) O-NO 1,00 h 0,000 mm 1,6 UV-I 624 W/m 8,4 C 18,5 C 0,3 km/h (0 Bft) 0,00 %
03.10.2015 14:00 19,4 C 51 % 1014,6 hPa 0,0 l/m 0,1 km/h (0 Bft) N 0,92 h 0,000 mm 1,5 UV-I 497 W/m 9,0 C 19,4 C 0,7 km/h (0 Bft) 0,00 %
03.10.2015 15:00 20,3 C 49 % 1014,7 hPa 0,0 l/m 0,0 km/h (0 Bft) N 0,75 h 0,000 mm 1,0 UV-I 282 W/m 9,3 C 20,3 C 0,0 km/h (0 Bft) 0,00 %
03.10.2015 16:00 21,0 C 48 % 1014,5 hPa 0,0 l/m 0,0 km/h (0 Bft) N 1,02 h 0,000 mm 1,0 UV-I 333 W/m 9,5 C 21,0 C 2,6 km/h (1 Bft) 0,00 %
03.10.2015 17:00 22,1 C 45 % 1014,0 hPa 0,0 l/m 0,0 km/h (0 Bft) N 1,00 h 0,000 mm 1,0 UV-I 557 W/m 9,6 C 22,1 C 0,0 km/h (0 Bft) 0,00 %
03.10.2015 18:00 19,7 C 56 % 1014,3 hPa 0,0 l/m 0,0 km/h (0 Bft) N 0,55 h 0,000 mm 0,0 UV-I 86 W/m 10,6 C 19,7 C 0,0 km/h (0 Bft) 0,00 %
03.10.2015 19:00 14,5 C 75 % 1014,6 hPa 0,0 l/m 0,0 km/h (0 Bft) N 0,00 h 0,000 mm 0,0 UV-I 0 W/m 10,0 C 14,5 C 0,0 km/h (0 Bft) 0,00 %
03.10.2015 20:00 12,6 C 84 % 1014,9 hPa 0,0 l/m 0,0 km/h (0 Bft) N 0,00 h 0,000 mm 0,0 UV-I 0 W/m 9,9 C 12,6 C 0,0 km/h (0 Bft) 0,00 %
03.10.2015 21:00 11,7 C 87 % 1014,9 hPa 0,0 l/m 0,0 km/h (0 Bft) N 0,00 h 0,000 mm 0,0 UV-I 0 W/m 9,6 C 11,7 C 0,0 km/h (0 Bft) 0,00 %
03.10.2015 22:00 11,0 C 89 % 1015,0 hPa 0,0 l/m 0,1 km/h (0 Bft) N 0,00 h 0,000 mm 0,0 UV-I 0 W/m 9,3 C 11,0 C 0,3 km/h (0 Bft) 0,00 %
03.10.2015 23:00 9,9 C 93 % 1014,9 hPa 0,0 l/m 0,0 km/h (0 Bft) N 0,00 h 0,000 mm 0,0 UV-I 0 W/m 8,7 C 9,9 C 0,0 km/h (0 Bft) 0,00 %
04.10.2015 00:00 8,8 C 96 % 1014,9 hPa 0,0 l/m 0,0 km/h (0 Bft) N 0,00 h 0,000 mm 0,0 UV-I 0 W/m 8,1 C 8,8 C 0,0 km/h (0 Bft) 0,00 %
04.10.2015 01:00 7,8 C 98 % 1015,2 hPa 0,0 l/m 0,0 km/h (0 Bft) N 0,00 h 0,000 mm 0,0 UV-I 0 W/m 7,5 C 7,8 C 0,0 km/h (0 Bft) 0,00 %
04.10.2015 02:00 7,4 C 99 % 1015,1 hPa 0,0 l/m 0,0 km/h (0 Bft) N 0,00 h 0,000 mm 0,0 UV-I 0 W/m 7,1 C 7,4 C 0,0 km/h (0 Bft) 0,00 %
04.10.2015 03:00 6,9 C 98 % 1015,1 hPa 0,0 l/m 0,0 km/h (0 Bft) N 0,00 h 0,000 mm 0,0 UV-I 0 W/m 6,5 C 6,9 C 0,0 km/h (0 Bft) 0,00 %
04.10.2015 04:00 6,4 C 97 % 1015,1 hPa 0,0 l/m 0,0 km/h (0 Bft) N 0,00 h 0,000 mm 0,0 UV-I 0 W/m 6,0 C 6,4 C 0,0 km/h (0 Bft) 0,00 %
04.10.2015 05:00 5,8 C 98 % 1015,4 hPa 0,0 l/m 0,0 km/h (0 Bft) N 0,00 h 0,000 mm 0,0 UV-I 0 W/m 5,5 C 5,8 C 0,0 km/h (0 Bft) 0,00 %
04.10.2015 06:00 5,8 C 98 % 1015,5 hPa 0,0 l/m 0,0 km/h (0 Bft) N 0,00 h 0,000 mm 0,0 UV-I 0 W/m 5,4 C 5,8 C 0,0 km/h (0 Bft) 0,00 %
04.10.2015 07:00 6,0 C 97 % 1015,6 hPa 0,0 l/m 0,0 km/h (0 Bft) N 0,42 h 0,000 mm 0,0 UV-I 32 W/m 5,6 C 6,0 C 0,0 km/h (0 Bft) 0,00 %
04.10.2015 08:00 8,2 C 99 % 1015,6 hPa 0,0 l/m 0,0 km/h (0 Bft) N 0,50 h 0,000 mm 1,0 UV-I 109 W/m 8,1 C 8,2 C 0,0 km/h (0 Bft) 0,00 %
04.10.2015 09:00 10,1 C 97 % 1016,1 hPa 0,0 l/m 0,0 km/h (0 Bft) N 0,17 h 0,000 mm 1,0 UV-I 186 W/m 9,6 C 10,1 C 0,0 km/h (0 Bft) 0,00 %
04.10.2015 10:00 12,3 C 86 % 1016,7 hPa 0,0 l/m 0,0 km/h (0 Bft) N 0,00 h 0,000 mm 1,0 UV-I 176 W/m 10,1 C 12,3 C 0,0 km/h (0 Bft) 0,00 %
04.10.2015 11:00 12,3 C 86 % 1016,8 hPa 0,0 l/m 0,0 km/h (0 Bft) N 0,00 h 0,000 mm 1,0 UV-I 151 W/m 10,1 C 12,3 C 0,0 km/h (0 Bft) 0,00 %
04.10.2015 12:00 12,6 C 87 % 1016,9 hPa 0,0 l/m 0,0 km/h (0 Bft) N 0,00 h 0,000 mm 1,0 UV-I 147 W/m 10,5 C 12,6 C 0,3 km/h (0 Bft) 0,00 %
04.10.2015 13:00 14,2 C 78 % 1017,0 hPa 0,0 l/m 0,7 km/h (0 Bft) S 0,33 h 0,000 mm 1,2 UV-I 341 W/m 10,4 C 14,2 C 2,0 km/h (1 Bft) 0,00 %
04.10.2015 14:00 16,4 C 69 % 1016,8 hPa 0,0 l/m 1,1 km/h (1 Bft) S 0,42 h 0,000 mm 1,2 UV-I 337 W/m 10,7 C 16,4 C 2,3 km/h (1 Bft) 0,00 %
04.10.2015 15:00 17,3 C 65 % 1017,0 hPa 0,0 l/m 4,3 km/h (1 Bft) S-SO 0,25 h 0,000 mm 1,0 UV-I 219 W/m 10,7 C 16,9 C 6,9 km/h (2 Bft) 0,00 %
04.10.2015 16:00 15,0 C 68 % 1017,6 hPa 0,0 l/m 4,5 km/h (1 Bft) S-SW 0,00 h 0,000 mm 1,0 UV-I 64 W/m 9,1 C 14,7 C 7,3 km/h (2 Bft) 0,00 %
04.10.2015 17:00 13,3 C 72 % 1018,0 hPa 0,0 l/m 4,2 km/h (1 Bft) SW 0,00 h 0,000 mm 1,0 UV-I 37 W/m 8,2 C 13,0 C 6,6 km/h (2 Bft) 0,00 %
04.10.2015 18:00 11,5 C 80 % 1018,3 hPa 0,0 l/m 5,0 km/h (1 Bft) S 0,00 h 0,000 mm 0,0 UV-I 5 W/m 8,2 C 11,2 C 8,6 km/h (2 Bft) 0,00 %
04.10.2015 19:00 11,0 C 80 % 1018,5 hPa 0,0 l/m 4,1 km/h (1 Bft) S 0,00 h 0,000 mm 0,0 UV-I 0 W/m 7,6 C 10,7 C 6,6 km/h (2 Bft) 0,00 %
04.10.2015 20:00 11,0 C 79 % 1018,6 hPa 0,0 l/m 3,6 km/h (1 Bft) S 0,00 h 0,000 mm 0,0 UV-I 0 W/m 7,6 C 10,8 C 6,3 km/h (2 Bft) 0,00 %
04.10.2015 21:00 10,5 C 86 % 1018,7 hPa 0,6 l/m 1,4 km/h (1 Bft) S 0,00 h 0,000 mm 0,0 UV-I 0 W/m 8,2 C 10,5 C 2,6 km/h (1 Bft) 0,00 %
04.10.2015 22:00 9,7 C 94 % 1018,7 hPa 0,3 l/m 0,0 km/h (0 Bft) N 0,00 h 0,000 mm 0,0 UV-I 0 W/m 8,8 C 9,7 C 0,0 km/h (0 Bft) 0,00 %
04.10.2015 23:00 9,5 C 96 % 1018,3 hPa 0,0 l/m 0,0 km/h (0 Bft) N 0,00 h 0,000 mm 0,0 UV-I 0 W/m 8,9 C 9,5 C 0,0 km/h (0 Bft) 0,00 %
Min-Datum _ 01.10.15 28.09.15 03.10.15 - 28.09.15 - - - - - 30.09.15 01.10.15 28.09.15 28.09.15
_ Min-Zeit 02:17 17:08 17:51 - 00:02 - - - - - 18:16 07:12 00:02 00:02
Minimum _ 3,3 C 41 % 1013,8 hPa - 0,0 km/h (0 Bft) - - - - - -0,1 C -0,8 C 0,0 km/h (0 Bft) 0,00 %
Max-Datum _ 03.10.15 04.10.15 28.09.15 04.10.15 01.10.15 - 01.10.15 28.09.15 28.09.15 28.09.15 03.10.15 03.10.15 01.10.15 28.09.15
_ Max-Zeit 17:06 02:09 10:48 21:35 16:32 - 15:12 00:02 12:13 14:43 18:16 17:06 16:32 00:02
Maximum _ 22,4 C 99 % 1033,2 hPa 0,6 l/m 26,6 km/h
O (4 Bft)
- 0,17 h 0,000 mm 3,0 UV-I 994 W/m 11,2 C 22,4 C 36,0 km/h
O (5 Bft)
0,00 %
Durchschnitt _ 10,3 C 71 % 1025,1 hPa #0,9 l/m 2,9 km/h (1 Bft) O #41:16 h #0,000 mm 1,2 UV-I 288 W/m 4,9 C 9,8 C 4,7 km/h (1 Bft) 0,00 %